Time;durP1;ratioP1;P1;durP2;ratioP2;P2;SDS_P1;SDS_P2;PMS_P1;PMS_P2;Temp;Humidity;BMP_temperature;BMP_pressure;BME280_temperature;BME280_humidity;BME280_pressure;Samples;Min_cycle;Max_cycle;Signal;HPM_P1;HPM_P2
2023/06/17 00:00:08;;;;;;;6.90;5.63;;;18.50;99.90;;;;;;5037599;28;20535;-82
2023/06/17 00:02:35;;;;;;;5.60;4.67;;;18.40;99.90;;;;;;5036319;28;20464;-82
2023/06/17 00:05:02;;;;;;;7.43;5.43;;;18.40;99.90;;;;;;5037722;28;20494;-81
2023/06/17 00:07:29;;;;;;;8.00;5.07;;;18.30;99.90;;;;;;5038804;28;20514;-80
2023/06/17 00:09:56;;;;;;;6.90;5.60;;;18.30;99.90;;;;;;5039487;28;20477;-81
2023/06/17 00:12:24;;;;;;;5.33;4.20;;;18.20;99.90;;;;;;5037874;28;20453;-82
2023/06/17 00:14:53;;;;;;;6.50;5.20;;;18.20;99.90;;;;;;5037820;28;20502;-80
2023/06/17 00:17:22;;;;;;;9.27;4.70;;;18.20;1.00;;;;;;5035938;28;20835;-82
2023/06/17 00:19:49;;;;;;;6.50;4.53;;;18.10;1.00;;;;;;5036896;28;20538;-81
2023/06/17 00:22:16;;;;;;;6.10;5.30;;;18.00;1.00;;;;;;5036697;28;20513;-81
2023/06/17 00:24:43;;;;;;;8.60;4.27;;;18.00;1.00;;;;;;5037471;28;20460;-81
2023/06/17 00:27:10;;;;;;;5.53;4.60;;;17.90;99.90;;;;;;5028097;28;21047;-82
2023/06/17 00:29:37;;;;;;;7.70;4.20;;;17.90;1.00;;;;;;5037092;28;20483;-81
2023/06/17 00:32:04;;;;;;;5.77;4.00;;;17.80;1.00;;;;;;5037386;28;20954;-81
2023/06/17 00:34:32;;;;;;;8.03;4.93;;;17.80;1.00;;;;;;5037073;28;20458;-82
2023/06/17 00:36:59;;;;;;;6.47;3.93;;;17.80;1.00;;;;;;5037013;28;20490;-82
2023/06/17 00:39:26;;;;;;;5.73;4.70;;;17.80;1.00;;;;;;5036566;28;20845;-81
2023/06/17 00:41:52;;;;;;;8.23;5.00;;;17.70;1.00;;;;;;5036913;28;20543;-82
2023/06/17 00:44:19;;;;;;;5.80;4.30;;;17.60;1.00;;;;;;5036407;28;20474;-83
2023/06/17 00:46:50;;;;;;;8.37;4.00;;;17.60;1.00;;;;;;5037026;28;20460;-81
2023/06/17 00:49:18;;;;;;;5.70;4.23;;;17.60;1.00;;;;;;5037756;28;20483;-82
2023/06/17 00:51:46;;;;;;;5.13;4.10;;;17.60;1.00;;;;;;5036547;28;20467;-80
2023/06/17 00:54:15;;;;;;;10.53;4.90;;;17.50;1.00;;;;;;5036278;28;20463;-81
2023/06/17 00:56:43;;;;;;;4.90;3.50;;;17.40;1.00;;;;;;5035315;28;20491;-81
2023/06/17 00:59:11;;;;;;;5.90;4.23;;;17.40;1.00;;;;;;5036586;28;20500;-80
2023/06/17 01:01:37;;;;;;;6.33;4.40;;;17.40;1.00;;;;;;5033590;28;20464;-81
2023/06/17 01:04:06;;;;;;;8.73;4.70;;;17.40;1.00;;;;;;5036974;28;20454;-81
2023/06/17 01:06:43;;;;;;;6.70;4.43;;;17.40;1.00;;;;;;5036199;28;20498;-81
2023/06/17 01:09:16;;;;;;;6.67;4.90;;;17.40;1.00;;;;;;5037182;28;20490;-81
2023/06/17 01:11:44;;;;;;;8.70;4.20;;;17.30;1.00;;;;;;5036586;28;20462;-81
2023/06/17 01:14:12;;;;;;;7.27;4.97;;;17.30;1.00;;;;;;5036773;28;20823;-81
2023/06/17 01:16:42;;;;;;;6.10;5.10;;;17.20;1.00;;;;;;5036089;28;20514;-81
2023/06/17 01:19:18;;;;;;;7.50;4.70;;;17.20;1.00;;;;;;5035613;28;20502;-82
2023/06/17 01:21:48;;;;;;;6.97;4.77;;;17.20;1.00;;;;;;5034389;28;20490;-81
2023/06/17 01:24:27;;;;;;;7.30;4.57;;;17.10;1.00;;;;;;5036643;28;20475;-81
2023/06/17 01:26:56;;;;;;;6.00;4.23;;;17.10;1.00;;;;;;5036482;28;20485;-80
2023/06/17 01:29:23;;;;;;;6.40;4.37;;;17.00;1.00;;;;;;5036030;28;20993;-80
2023/06/17 01:31:51;;;;;;;9.80;4.73;;;17.00;1.00;;;;;;5036557;28;20450;-80
2023/06/17 01:34:23;;;;;;;5.70;4.23;;;16.90;1.00;;;;;;5037791;28;20542;-81
2023/06/17 01:36:52;;;;;;;5.90;4.60;;;16.90;1.00;;;;;;5040471;28;20472;-80
2023/06/17 01:39:24;;;;;;;5.33;4.60;;;16.90;1.00;;;;;;5040180;28;20476;-80
2023/06/17 01:41:57;;;;;;;6.30;4.70;;;16.90;1.00;;;;;;5040038;28;20938;-79
2023/06/17 01:44:25;;;;;;;6.27;5.00;;;16.90;1.00;;;;;;5037827;28;20442;-80
2023/06/17 01:46:52;;;;;;;6.67;4.00;;;16.80;9.60;;;;;;5039799;28;20455;-82
2023/06/17 01:49:19;;;;;;;6.23;4.57;;;16.80;1.00;;;;;;5040598;28;20595;-81
2023/06/17 01:51:46;;;;;;;6.57;4.90;;;16.70;1.00;;;;;;5039122;28;20814;-81
2023/06/17 01:54:13;;;;;;;6.67;4.30;;;16.70;1.00;;;;;;5039694;28;21018;-81
2023/06/17 01:56:41;;;;;;;7.33;4.60;;;16.70;10.40;;;;;;5039472;28;21029;-81
2023/06/17 01:59:08;;;;;;;6.80;5.00;;;16.70;58.90;;;;;;5039661;28;20557;-81
2023/06/17 02:01:34;;;;;;;6.80;4.57;;;16.60;1.00;;;;;;5040046;28;20539;-81
2023/06/17 02:04:01;;;;;;;7.67;4.60;;;16.60;1.00;;;;;;5040054;28;20450;-80
2023/06/17 02:06:28;;;;;;;6.07;4.93;;;16.50;1.00;;;;;;5038422;28;20465;-82
2023/06/17 02:08:55;;;;;;;5.47;4.67;;;16.50;18.50;;;;;;5039876;28;21035;-82
2023/06/17 02:11:22;;;;;;;7.67;4.80;;;16.50;99.90;;;;;;5039229;28;20461;-81
2023/06/17 02:13:50;;;;;;;5.77;4.20;;;16.50;99.90;;;;;;5039961;28;20433;-81
2023/06/17 02:16:17;;;;;;;6.67;5.07;;;16.40;99.90;;;;;;5039176;28;20886;-81
2023/06/17 02:18:45;;;;;;;5.40;4.00;;;16.40;25.30;;;;;;5039287;28;20477;-81
2023/06/17 02:21:11;;;;;;;8.53;4.40;;;16.40;1.00;;;;;;5039282;28;20827;-81
2023/06/17 02:23:38;;;;;;;8.17;4.73;;;16.30;31.00;;;;;;5039388;28;20454;-81
2023/06/17 02:26:05;;;;;;;7.43;5.20;;;16.30;45.90;;;;;;5038464;28;20479;-80
2023/06/17 02:28:32;;;;;;;6.60;4.40;;;16.30;99.90;;;;;;5039133;28;20491;-81
2023/06/17 02:31:00;;;;;;;6.63;4.20;;;16.20;99.90;;;;;;5038697;28;20457;-81
2023/06/17 02:33:27;;;;;;;5.27;4.13;;;16.20;99.90;;;;;;5037627;28;20464;-80
2023/06/17 02:35:54;;;;;;;6.30;4.43;;;16.20;99.90;;;;;;5037771;28;20487;-81
2023/06/17 02:38:24;;;;;;;5.83;4.33;;;16.20;99.90;;;;;;5038296;28;20479;-82
2023/06/17 02:40:51;;;;;;;6.97;4.80;;;16.20;99.90;;;;;;5038380;28;20531;-80
2023/06/17 02:43:17;;;;;;;7.47;4.90;;;16.20;99.90;;;;;;5038214;28;20460;-82
2023/06/17 02:45:44;;;;;;;7.50;5.13;;;16.10;99.90;;;;;;5037205;28;20564;-81
2023/06/17 02:48:13;;;;;;;6.50;5.10;;;16.10;99.90;;;;;;5030572;28;21172;-81
2023/06/17 02:50:40;;;;;;;7.40;5.33;;;16.10;99.90;;;;;;5038025;28;20778;-82
2023/06/17 02:53:07;;;;;;;5.60;4.83;;;16.00;99.90;;;;;;5037154;28;20501;-81
2023/06/17 02:55:34;;;;;;;7.67;4.73;;;16.00;99.90;;;;;;5038150;28;20450;-81
2023/06/17 02:58:02;;;;;;;7.57;5.00;;;16.00;99.90;;;;;;5038886;28;20462;-80
2023/06/17 03:00:29;;;;;;;7.73;5.23;;;16.00;99.90;;;;;;5035886;28;20961;-82
2023/06/17 03:02:56;;;;;;;6.60;4.70;;;16.00;99.90;;;;;;5038604;28;20454;-80
2023/06/17 03:05:24;;;;;;;6.43;5.03;;;16.00;99.90;;;;;;5037281;28;20999;-83
2023/06/17 03:07:51;;;;;;;6.50;5.03;;;16.00;99.90;;;;;;5038610;28;20457;-79
2023/06/17 03:10:18;;;;;;;7.03;4.70;;;15.90;99.90;;;;;;5038570;28;20468;-81
2023/06/17 03:12:45;;;;;;;7.63;5.30;;;15.90;99.90;;;;;;5029344;28;20465;-81
2023/06/17 03:15:13;;;;;;;6.33;5.13;;;15.80;99.90;;;;;;5037498;28;20449;-79
2023/06/17 03:17:40;;;;;;;6.60;5.00;;;15.80;99.90;;;;;;5035971;28;20561;-80
2023/06/17 03:20:08;;;;;;;7.63;4.73;;;15.80;99.90;;;;;;5037908;28;21119;-81
2023/06/17 03:22:37;;;;;;;7.03;4.70;;;15.80;99.90;;;;;;5038838;28;20449;-82
2023/06/17 03:25:07;;;;;;;8.60;5.33;;;15.80;99.90;;;;;;5037667;28;20463;-83
2023/06/17 03:27:34;;;;;;;8.97;5.17;;;15.70;99.90;;;;;;5038274;28;20468;-83
2023/06/17 03:30:01;;;;;;;6.33;4.30;;;15.70;1.00;;;;;;5076184;22;20492;-82
2023/06/17 03:32:27;;;;;;;6.70;4.80;;;15.70;1.00;;;;;;5043497;28;21001;-82
2023/06/17 03:34:54;;;;;;;6.43;5.07;;;15.60;1.00;;;;;;5055011;28;20466;-81
2023/06/17 03:37:21;;;;;;;8.60;5.43;;;15.70;1.00;;;;;;5053880;28;20482;-82
2023/06/17 03:39:49;;;;;;;7.90;4.90;;;15.60;1.00;;;;;;5045387;28;20483;-82
2023/06/17 03:42:17;;;;;;;6.67;4.90;;;15.60;1.00;;;;;;5034514;28;20452;-80
2023/06/17 03:44:43;;;;;;;8.43;4.90;;;15.70;1.00;;;;;;5034862;28;20457;-81
2023/06/17 03:47:10;;;;;;;8.33;5.40;;;15.70;1.00;;;;;;5038004;28;20451;-82
2023/06/17 03:49:37;;;;;;;6.70;5.53;;;15.70;99.90;;;;;;5038715;28;20835;-82
2023/06/17 03:52:04;;;;;;;7.10;5.50;;;15.70;58.70;;;;;;5035160;28;20449;-82
2023/06/17 03:54:32;;;;;;;6.67;5.00;;;15.70;1.00;;;;;;5034662;28;20453;-81
2023/06/17 03:57:00;;;;;;;8.60;5.50;;;15.70;16.80;;;;;;5034363;28;20484;-81
2023/06/17 03:59:27;;;;;;;9.70;6.23;;;15.70;1.00;;;;;;5034823;28;20477;-81
2023/06/17 04:01:54;;;;;;;8.30;5.27;;;15.70;99.90;;;;;;5033836;28;20442;-81
2023/06/17 04:04:20;;;;;;;7.40;5.43;;;15.80;96.80;;;;;;5033974;28;20587;-82
2023/06/17 04:06:47;;;;;;;5.53;4.80;;;15.70;99.90;;;;;;5034106;28;20453;-81
2023/06/17 04:09:14;;;;;;;8.57;5.57;;;15.80;99.90;;;;;;5034510;28;21018;-83
2023/06/17 04:11:41;;;;;;;7.13;4.87;;;15.80;99.90;;;;;;5033221;28;20460;-80
2023/06/17 04:14:09;;;;;;;7.43;5.30;;;15.80;99.90;;;;;;5033535;28;20488;-82
2023/06/17 04:16:36;;;;;;;9.90;5.90;;;15.90;99.90;;;;;;5033644;28;20487;-81
2023/06/17 04:19:03;;;;;;;7.97;5.37;;;15.90;99.90;;;;;;5034187;28;20523;-82
2023/06/17 04:21:30;;;;;;;7.13;5.30;;;15.90;99.90;;;;;;5034242;28;20457;-81
2023/06/17 04:23:57;;;;;;;7.20;5.43;;;16.00;99.90;;;;;;5033485;28;20449;-82
2023/06/17 04:26:24;;;;;;;8.00;5.13;;;16.10;1.00;;;;;;5033510;28;20449;-82
2023/06/17 04:28:51;;;;;;;9.23;5.90;;;16.10;99.90;;;;;;5033128;28;20552;-82
2023/06/17 04:31:19;;;;;;;7.37;5.50;;;16.20;99.90;;;;;;5033045;28;20454;-81
2023/06/17 04:33:46;;;;;;;8.40;5.17;;;16.20;1.00;;;;;;5033738;28;20449;-81
2023/06/17 04:36:14;;;;;;;7.33;4.93;;;16.30;1.00;;;;;;5032739;28;20985;-81
2023/06/17 04:38:41;;;;;;;8.90;5.73;;;16.30;99.90;;;;;;5032711;28;20836;-81
2023/06/17 04:41:08;;;;;;;10.10;6.10;;;16.40;99.90;;;;;;5032512;28;20462;-80
2023/06/17 04:43:36;;;;;;;7.17;5.10;;;16.40;99.90;;;;;;5033891;28;20534;-81
2023/06/17 04:46:03;;;;;;;6.10;5.33;;;16.50;99.90;;;;;;5035804;28;20454;-81
2023/06/17 04:48:32;;;;;;;8.70;5.73;;;16.60;99.90;;;;;;5043981;28;20443;-80
2023/06/17 04:50:59;;;;;;;6.83;5.30;;;16.60;99.90;;;;;;5048048;28;20486;-81
2023/06/17 04:53:26;;;;;;;7.00;5.10;;;16.70;99.90;;;;;;5036349;28;20479;-81
2023/06/17 04:55:53;;;;;;;9.77;6.40;;;16.80;1.00;;;;;;5034796;28;20507;-80
2023/06/17 04:58:20;;;;;;;8.23;6.27;;;16.90;1.00;;;;;;5038893;28;20490;-81
2023/06/17 05:00:47;;;;;;;8.50;6.13;;;16.90;1.00;;;;;;5036136;28;20486;-83
2023/06/17 05:03:13;;;;;;;7.97;6.00;;;17.00;1.00;;;;;;5036035;28;20825;-81
2023/06/17 05:05:42;;;;;;;7.87;6.77;;;17.10;99.90;;;;;;5036428;28;20466;-83
2023/06/17 05:08:08;;;;;;;7.47;5.43;;;17.10;99.90;;;;;;5037233;28;20990;-82
2023/06/17 05:10:35;;;;;;;9.70;6.30;;;17.20;99.90;;;;;;5041081;28;20478;-83
2023/06/17 05:13:02;;;;;;;7.90;6.30;;;17.30;29.80;;;;;;5041010;28;20523;-81
2023/06/17 05:15:29;;;;;;;9.50;7.13;;;17.40;1.00;;;;;;5040250;28;20897;-82
2023/06/17 05:17:56;;;;;;;9.73;7.23;;;17.40;1.00;;;;;;5039944;28;20490;-83
2023/06/17 05:20:22;;;;;;;9.87;7.10;;;17.50;1.00;;;;;;5039750;28;20536;-80
2023/06/17 05:22:50;;;;;;;8.43;6.90;;;17.60;1.00;;;;;;5040120;28;20551;-82
2023/06/17 05:25:17;;;;;;;9.50;7.37;;;17.70;1.00;;;;;;5039594;28;20455;-82
2023/06/17 05:27:44;;;;;;;10.53;7.13;;;17.80;1.00;;;;;;5043475;28;20449;-81
2023/06/17 05:30:12;;;;;;;9.67;6.90;;;17.80;1.00;;;;;;5042122;28;20798;-81
2023/06/17 05:32:38;;;;;;;8.70;6.30;;;17.90;1.00;;;;;;5044534;28;20463;-81
2023/06/17 05:35:06;;;;;;;7.80;6.47;;;17.90;1.00;;;;;;5045084;28;20459;-83
2023/06/17 05:37:33;;;;;;;14.80;8.33;;;18.00;1.00;;;;;;5044138;28;20502;-82
2023/06/17 05:40:02;;;;;;;10.33;6.90;;;18.00;1.00;;;;;;5042600;28;20978;-81
2023/06/17 05:42:28;;;;;;;9.10;7.00;;;18.10;1.00;;;;;;5047073;28;20815;-81
2023/06/17 05:44:55;;;;;;;11.43;7.47;;;18.20;1.00;;;;;;5043149;28;20470;-81
2023/06/17 05:47:22;;;;;;;11.03;8.77;;;18.30;1.00;;;;;;5042101;28;20537;-83
2023/06/17 05:49:49;;;;;;;14.90;8.20;;;18.40;1.00;;;;;;5041179;28;20479;-83
2023/06/17 05:52:16;;;;;;;12.50;8.77;;;18.50;1.00;;;;;;5042347;28;20468;-80
2023/06/17 05:54:43;;;;;;;12.23;8.57;;;18.50;1.00;;;;;;5041784;28;20548;-82
2023/06/17 05:57:11;;;;;;;14.13;9.60;;;18.50;1.00;;;;;;5040910;28;20476;-83
2023/06/17 05:59:37;;;;;;;10.63;8.20;;;18.60;99.90;;;;;;5040379;28;20481;-83
2023/06/17 06:02:05;;;;;;;11.20;7.70;;;18.70;99.90;;;;;;5046460;28;20463;-83
2023/06/17 06:04:32;;;;;;;12.10;7.27;;;18.80;99.90;;;;;;5041924;28;20983;-83
2023/06/17 06:06:59;;;;;;;10.30;7.57;;;18.80;99.90;;;;;;5042922;28;20448;-83
2023/06/17 06:09:26;;;;;;;7.73;6.93;;;18.90;99.90;;;;;;5041835;28;20959;-83
2023/06/17 06:11:52;;;;;;;9.40;7.47;;;18.90;99.90;;;;;;5042287;28;20551;-83
2023/06/17 06:14:20;;;;;;;10.97;7.77;;;18.90;99.90;;;;;;5047575;28;20990;-81
2023/06/17 06:16:47;;;;;;;8.93;7.50;;;19.00;99.90;;;;;;5044732;28;20549;-81
2023/06/17 06:19:14;;;;;;;8.00;6.60;;;19.10;99.90;;;;;;5050921;28;20502;-82
2023/06/17 06:21:41;;;;;;;12.17;7.33;;;19.20;99.90;;;;;;5041885;28;20461;-83
2023/06/17 06:24:08;;;;;;;7.10;6.13;;;19.20;99.90;;;;;;5041044;28;20449;-82
2023/06/17 06:26:34;;;;;;;8.53;7.00;;;19.30;99.90;;;;;;5041061;28;20554;-83
2023/06/17 06:29:01;;;;;;;8.57;7.20;;;19.30;99.90;;;;;;5041427;28;20472;-83
2023/06/17 06:31:30;;;;;;;7.90;6.90;;;19.30;99.90;;;;;;5047257;28;20476;-83
2023/06/17 06:33:56;;;;;;;9.30;6.30;;;19.40;99.90;;;;;;5045967;28;20462;-83
2023/06/17 06:36:23;;;;;;;6.80;6.10;;;19.60;99.90;;;;;;5045933;28;21019;-81
2023/06/17 06:38:50;;;;;;;8.20;6.60;;;19.60;99.90;;;;;;5043972;28;20488;-82
2023/06/17 06:41:17;;;;;;;7.07;6.23;;;19.70;99.90;;;;;;5040115;28;20459;-83
2023/06/17 06:43:44;;;;;;;7.27;6.17;;;19.80;99.90;;;;;;5039620;28;21007;-82
2023/06/17 06:46:10;;;;;;;8.00;7.10;;;19.80;99.90;;;;;;5040957;28;20868;-84
2023/06/17 06:48:39;;;;;;;7.63;6.73;;;19.90;99.90;;;;;;5039570;28;20555;-84
2023/06/17 06:51:05;;;;;;;7.53;6.47;;;19.90;99.90;;;;;;5041017;28;20448;-83
2023/06/17 06:53:32;;;;;;;9.33;6.60;;;20.00;99.90;;;;;;5052838;28;20461;-82
2023/06/17 06:55:59;;;;;;;8.93;5.90;;;20.10;99.90;;;;;;5044592;28;20513;-84
2023/06/17 06:58:26;;;;;;;9.67;7.73;;;20.20;99.90;;;;;;5041265;28;20492;-84
2023/06/17 07:00:53;;;;;;;9.20;6.60;;;20.30;99.90;;;;;;5043142;28;20558;-82
2023/06/17 07:03:20;;;;;;;8.53;7.00;;;20.30;99.90;;;;;;5040724;28;20484;-84
2023/06/17 07:05:48;;;;;;;7.80;6.27;;;20.40;99.90;;;;;;5042913;28;20488;-82
2023/06/17 07:08:15;;;;;;;7.33;6.53;;;20.40;99.90;;;;;;5040126;28;20460;-81
2023/06/17 07:10:42;;;;;;;8.23;6.33;;;20.50;99.90;;;;;;5041325;28;20460;-83
2023/06/17 07:13:08;;;;;;;8.33;6.50;;;20.60;99.90;;;;;;5039195;28;21024;-84
2023/06/17 07:15:35;;;;;;;9.80;7.03;;;20.70;99.90;;;;;;5038990;28;20459;-84
2023/06/17 07:18:03;;;;;;;7.00;6.17;;;20.70;99.90;;;;;;5043329;28;20486;-82
2023/06/17 07:20:30;;;;;;;9.20;6.97;;;20.70;99.90;;;;;;5041119;28;21008;-83
2023/06/17 07:22:58;;;;;;;7.23;6.03;;;20.80;99.90;;;;;;5040286;28;20551;-83
2023/06/17 07:25:26;;;;;;;10.47;7.10;;;20.90;99.90;;;;;;5039849;28;20496;-83
2023/06/17 07:27:56;;;;;;;9.27;6.70;;;21.00;99.90;;;;;;5039973;28;20452;-82
2023/06/17 07:30:23;;;;;;;10.47;7.50;;;21.10;99.90;;;;;;5039146;28;20485;-83
2023/06/17 07:32:50;;;;;;;8.57;6.80;;;21.10;99.90;;;;;;5039799;28;20447;-83
2023/06/17 07:35:17;;;;;;;11.90;6.40;;;21.10;99.90;;;;;;5038346;28;20484;-82
2023/06/17 07:37:44;;;;;;;7.10;5.90;;;21.10;99.90;;;;;;5039160;28;20522;-81
2023/06/17 07:40:13;;;;;;;8.30;5.60;;;21.10;99.90;;;;;;5039021;28;20539;-82
2023/06/17 07:42:41;;;;;;;8.77;5.30;;;21.20;99.90;;;;;;5038571;28;20548;-83
2023/06/17 07:45:08;;;;;;;6.40;5.23;;;21.30;99.90;;;;;;5038458;28;20547;-82
2023/06/17 07:47:35;;;;;;;7.50;5.47;;;21.40;99.90;;;;;;5038436;28;21025;-83
2023/06/17 07:50:04;;;;;;;8.60;5.60;;;21.50;99.90;;;;;;5039166;28;20477;-82
2023/06/17 07:52:32;;;;;;;6.40;5.10;;;21.60;99.90;;;;;;5038123;28;20952;-83
2023/06/17 07:54:59;;;;;;;7.40;4.90;;;21.70;99.90;;;;;;5039051;28;20453;-82
2023/06/17 07:57:27;;;;;;;6.10;4.70;;;21.80;99.90;;;;;;5038136;28;21002;-83
2023/06/17 07:59:54;;;;;;;7.47;5.50;;;22.00;99.90;;;;;;5038918;28;20472;-82
2023/06/17 08:02:21;;;;;;;9.63;6.00;;;22.10;99.90;;;;;;5037979;28;20539;-85
2023/06/17 08:04:48;;;;;;;6.10;4.43;;;22.10;99.90;;;;;;5044000;28;20483;-84
2023/06/17 08:07:15;;;;;;;6.97;4.30;;;22.20;99.90;;;;;;5043556;28;20449;-83
2023/06/17 08:09:42;;;;;;;7.00;4.50;;;22.40;99.90;;;;;;5040811;28;20499;-83
2023/06/17 08:12:09;;;;;;;8.70;4.70;;;22.40;99.90;;;;;;5050317;28;20452;-83
2023/06/17 08:14:37;;;;;;;5.33;4.40;;;22.50;99.90;;;;;;5041950;28;20451;-84
2023/06/17 08:17:05;;;;;;;5.83;4.40;;;22.60;99.90;;;;;;5044465;28;20460;-84
2023/06/17 08:19:33;;;;;;;5.30;3.83;;;22.70;99.90;;;;;;5041455;28;20539;-84
2023/06/17 08:22:00;;;;;;;5.73;3.47;;;22.70;99.90;;;;;;5041015;28;20883;-83
2023/06/17 08:24:27;;;;;;;4.87;3.10;;;22.90;99.90;;;;;;5054744;28;20486;-85
2023/06/17 08:26:54;;;;;;;4.57;3.90;;;23.10;99.90;;;;;;5049128;28;20516;-84
2023/06/17 08:29:21;;;;;;;5.17;4.60;;;23.20;99.90;;;;;;5045996;28;20496;-86
2023/06/17 08:31:52;;;;;;;5.70;4.30;;;23.40;99.90;;;;;;5045704;28;20461;-87
2023/06/17 08:34:19;;;;;;;6.93;4.47;;;23.50;99.90;;;;;;5043900;28;20456;-85
2023/06/17 08:36:47;;;;;;;7.23;4.20;;;23.70;99.90;;;;;;5034233;28;20637;-86
2023/06/17 08:39:14;;;;;;;5.67;4.17;;;24.00;99.90;;;;;;5040612;28;20535;-86
2023/06/17 08:41:43;;;;;;;6.47;3.77;;;24.30;99.90;;;;;;5042009;28;20449;-86
2023/06/17 08:44:12;;;;;;;4.23;3.53;;;24.50;99.90;;;;;;5042502;28;20544;-86
2023/06/17 08:46:39;;;;;;;6.57;3.83;;;24.70;99.90;;;;;;5022589;28;20833;-85
2023/06/17 08:49:08;;;;;;;5.47;3.63;;;24.90;99.90;;;;;;5039322;28;20985;-86
2023/06/17 08:51:35;;;;;;;5.27;3.50;;;25.10;99.90;;;;;;5036114;28;20512;-85
2023/06/17 08:54:03;;;;;;;5.23;3.50;;;25.10;99.90;;;;;;5039859;28;20453;-87
2023/06/17 08:56:30;;;;;;;5.90;3.73;;;25.10;99.90;;;;;;5047294;28;20453;-86
2023/06/17 08:58:57;;;;;;;6.33;3.97;;;25.20;99.90;;;;;;5050388;28;20472;-86
2023/06/17 09:01:25;;;;;;;5.80;3.47;;;25.40;99.90;;;;;;5040123;28;20452;-87
2023/06/17 09:03:54;;;;;;;6.40;3.50;;;25.50;99.90;;;;;;5036569;28;20521;-86
2023/06/17 09:06:24;;;;;;;5.57;3.77;;;25.60;99.90;;;;;;5037175;28;20520;-86
2023/06/17 09:08:52;;;;;;;5.37;3.50;;;25.80;99.90;;;;;;5038270;28;20499;-86
2023/06/17 09:11:22;;;;;;;6.47;3.43;;;26.00;99.90;;;;;;5038538;28;20453;-87
2023/06/17 09:13:52;;;;;;;6.87;3.40;;;26.20;99.90;;;;;;5037801;28;20445;-86
2023/06/17 09:16:19;;;;;;;5.30;3.70;;;26.30;99.90;;;;;;5036677;28;20458;-86
2023/06/17 09:18:46;;;;;;;6.40;3.20;;;26.30;99.90;;;;;;5035145;28;20539;-86
2023/06/17 09:21:16;;;;;;;4.40;3.53;;;26.50;99.90;;;;;;5036122;28;20459;-86
2023/06/17 09:23:53;;;;;;;3.90;3.30;;;26.60;99.90;;;;;;5036888;28;20941;-85
2023/06/17 09:26:19;;;;;;;3.50;3.07;;;26.70;99.90;;;;;;5033216;28;20460;-86
2023/06/17 09:31:12;;;;;;;4.07;3.47;;;27.00;99.90;;;;;;5073750;22;20495;-82
2023/06/17 09:33:44;;;;;;;5.03;3.13;;;27.10;99.90;;;;;;5041048;28;20901;-81
2023/06/17 09:36:10;;;;;;;6.90;3.40;;;27.20;99.90;;;;;;5039727;28;20467;-82
2023/06/17 09:38:38;;;;;;;4.57;3.17;;;27.40;99.90;;;;;;5040725;28;20492;-83
2023/06/17 09:41:08;;;;;;;4.73;3.03;;;27.30;99.90;;;;;;5029774;28;20480;-82
2023/06/17 09:43:36;;;;;;;3.90;3.13;;;27.50;99.90;;;;;;5021524;28;20457;-83
2023/06/17 09:46:04;;;;;;;5.00;3.00;;;27.30;99.90;;;;;;5021131;28;20452;-81
2023/06/17 09:48:37;;;;;;;4.23;3.20;;;27.60;99.90;;;;;;5021602;28;20452;-82
2023/06/17 09:51:09;;;;;;;5.40;3.70;;;27.70;99.90;;;;;;5041227;28;20583;-82
2023/06/17 09:53:37;;;;;;;3.80;2.70;;;27.80;99.90;;;;;;5039815;28;20547;-83
2023/06/17 09:56:04;;;;;;;4.13;3.00;;;27.90;99.90;;;;;;5043464;28;20941;-80
2023/06/17 09:58:34;;;;;;;4.20;2.97;;;28.10;99.90;;;;;;5044405;28;20489;-82
2023/06/17 10:01:06;;;;;;;3.50;2.93;;;28.30;99.90;;;;;;5043415;28;20472;-83
2023/06/17 10:03:34;;;;;;;4.60;3.07;;;28.60;99.90;;;;;;5032744;28;20481;-84
2023/06/17 10:06:04;;;;;;;5.00;3.10;;;28.80;99.90;;;;;;5022556;28;20484;-83
2023/06/17 10:08:31;;;;;;;4.10;3.00;;;28.90;99.90;;;;;;5023371;28;20442;-83
2023/06/17 10:11:00;;;;;;;3.53;2.70;;;29.00;99.90;;;;;;5035648;28;20849;-84
2023/06/17 10:13:32;;;;;;;3.97;2.57;;;29.00;99.90;;;;;;5042301;28;20504;-82
2023/06/17 10:16:03;;;;;;;4.73;3.23;;;29.20;99.90;;;;;;5043078;28;20925;-82
2023/06/17 10:18:31;;;;;;;4.40;3.07;;;29.50;99.90;;;;;;5023289;28;20507;-83
2023/06/17 10:21:00;;;;;;;4.00;3.23;;;29.60;99.90;;;;;;5023580;28;20556;-83
2023/06/17 10:23:27;;;;;;;5.77;3.77;;;29.70;99.90;;;;;;5024922;28;20521;-82
2023/06/17 10:25:54;;;;;;;4.90;3.43;;;29.80;99.90;;;;;;5023572;28;20464;-83
2023/06/17 10:28:21;;;;;;;3.30;2.77;;;29.80;99.90;;;;;;5023756;28;20446;-83
2023/06/17 10:30:51;;;;;;;4.03;3.10;;;30.00;99.90;;;;;;5031117;28;20492;-83
2023/06/17 10:33:27;;;;;;;4.70;3.07;;;29.90;99.90;;;;;;5044084;28;20461;-84
2023/06/17 10:36:07;;;;;;;8.00;3.00;;;30.00;99.90;;;;;;5041252;28;20826;-84
2023/06/17 10:38:34;;;;;;;7.13;3.17;;;30.10;99.90;;;;;;5037731;28;20912;-82
2023/06/17 10:41:01;;;;;;;5.50;3.13;;;30.20;99.90;;;;;;5020565;28;20486;-82
2023/06/17 10:43:36;;;;;;;10.07;4.20;;;30.50;99.90;;;;;;5019795;28;20489;-82
2023/06/17 10:46:02;;;;;;;3.80;3.27;;;30.50;99.90;;;;;;5019161;28;20449;-83
2023/06/17 10:48:32;;;;;;;4.77;2.97;;;30.60;99.90;;;;;;5020209;28;20464;-83
2023/06/17 10:51:02;;;;;;;4.13;3.50;;;30.40;99.90;;;;;;5019690;28;20479;-83
2023/06/17 10:53:31;;;;;;;4.13;3.03;;;30.60;99.90;;;;;;5018500;28;20453;-82
2023/06/17 10:55:59;;;;;;;4.00;3.10;;;30.80;99.90;;;;;;5036540;28;20536;-83
2023/06/17 10:58:33;;;;;;;4.10;3.13;;;30.60;99.90;;;;;;5039571;28;20484;-82
2023/06/17 11:01:01;;;;;;;4.97;2.73;;;30.50;99.90;;;;;;5037979;28;20469;-83
2023/06/17 11:03:30;;;;;;;4.57;2.80;;;30.60;99.90;;;;;;5025251;28;20489;-80
2023/06/17 11:06:04;;;;;;;6.17;3.20;;;30.80;99.90;;;;;;5036438;28;20456;-84
2023/06/17 11:08:32;;;;;;;4.27;3.20;;;30.90;99.90;;;;;;5037242;28;20516;-83
2023/06/17 11:11:09;;;;;;;5.10;3.10;;;31.10;99.90;;;;;;5037637;28;20890;-85
2023/06/17 11:13:37;;;;;;;4.33;3.10;;;31.00;99.90;;;;;;5022480;28;20540;-83
2023/06/17 11:16:05;;;;;;;4.27;3.20;;;31.20;99.90;;;;;;5018762;28;20450;-83
2023/06/17 11:18:35;;;;;;;3.70;3.07;;;31.20;99.90;;;;;;5018750;28;20492;-83
2023/06/17 11:21:04;;;;;;;4.40;3.00;;;31.20;99.90;;;;;;5022875;28;21008;-83
2023/06/17 11:23:30;;;;;;;4.33;2.87;;;31.40;99.90;;;;;;5036693;28;20451;-84
2023/06/17 11:25:57;;;;;;;5.67;3.20;;;31.70;99.90;;;;;;5020035;28;20476;-83
2023/06/17 11:28:24;;;;;;;3.90;3.00;;;31.70;99.90;;;;;;5036944;28;20456;-82
2023/06/17 11:30:51;;;;;;;3.57;2.97;;;31.80;99.90;;;;;;5037476;28;20980;-82
2023/06/17 11:33:21;;;;;;;7.70;2.80;;;32.10;99.90;;;;;;5038026;28;20453;-82
2023/06/17 11:35:50;;;;;;;3.67;3.10;;;31.90;99.90;;;;;;5035951;28;20461;-83
2023/06/17 11:38:19;;;;;;;3.53;3.00;;;31.90;99.90;;;;;;5029219;28;20456;-82
2023/06/17 11:40:45;;;;;;;3.87;3.23;;;32.20;99.90;;;;;;5030729;28;20981;-82
2023/06/17 11:43:12;;;;;;;4.40;3.30;;;32.30;99.90;;;;;;5034882;28;20457;-81
2023/06/17 11:45:42;;;;;;;4.23;3.50;;;32.50;99.90;;;;;;5030838;28;20467;-81
2023/06/17 11:48:09;;;;;;;7.47;3.20;;;32.70;99.90;;;;;;5036990;28;20457;-83
2023/06/17 11:50:37;;;;;;;5.23;3.17;;;32.90;99.90;;;;;;5036991;28;20849;-84
2023/06/17 11:53:05;;;;;;;4.63;3.20;;;32.80;99.90;;;;;;5029840;28;20496;-82
2023/06/17 11:55:33;;;;;;;4.90;3.10;;;32.70;99.90;;;;;;5031788;28;20479;-82
2023/06/17 11:58:01;;;;;;;3.80;2.83;;;32.70;99.90;;;;;;5038243;28;20544;-84
2023/06/17 12:00:29;;;;;;;4.43;3.63;;;32.70;99.90;;;;;;5038044;28;20555;-82
2023/06/17 12:02:57;;;;;;;7.17;3.53;;;32.70;99.90;;;;;;5037963;28;20967;-81
2023/06/17 12:05:28;;;;;;;4.93;3.20;;;32.80;99.90;;;;;;5034837;28;20437;-83
2023/06/17 12:08:01;;;;;;;3.40;3.00;;;33.10;99.90;;;;;;5037438;28;20453;-83
2023/06/17 12:10:30;;;;;;;5.90;4.10;;;33.30;99.90;;;;;;5036227;28;20472;-84
2023/06/17 12:12:58;;;;;;;4.23;3.10;;;33.50;99.90;;;;;;5037215;28;20949;-81
2023/06/17 12:15:29;;;;;;;3.40;2.80;;;33.60;99.90;;;;;;5035325;28;20460;-82
2023/06/17 12:17:57;;;;;;;4.10;3.30;;;33.80;99.90;;;;;;5017607;28;20460;-83
2023/06/17 12:20:30;;;;;;;5.53;3.40;;;33.90;99.90;;;;;;5017570;28;21230;-83
2023/06/17 12:22:57;;;;;;;4.10;2.90;;;33.80;99.90;;;;;;5017509;28;20446;-82
2023/06/17 12:25:24;;;;;;;4.50;3.33;;;33.90;99.90;;;;;;5022185;28;20818;-81
2023/06/17 12:27:52;;;;;;;4.90;3.17;;;33.90;99.90;;;;;;5021839;28;20480;-81
2023/06/17 12:30:22;;;;;;;4.30;3.43;;;34.00;99.90;;;;;;5030065;28;20563;-82
2023/06/17 12:32:50;;;;;;;8.57;3.77;;;34.20;99.90;;;;;;5041277;28;20487;-83
2023/06/17 12:35:19;;;;;;;3.57;3.20;;;34.50;99.90;;;;;;5040828;28;20984;-81
2023/06/17 12:37:48;;;;;;;3.73;2.70;;;34.70;99.90;;;;;;5040463;28;20452;-83
2023/06/17 12:40:15;;;;;;;4.17;3.60;;;34.70;99.90;;;;;;5036351;28;20516;-80
2023/06/17 12:42:43;;;;;;;4.20;3.40;;;34.90;99.90;;;;;;5030111;28;20462;-82
2023/06/17 12:45:12;;;;;;;4.90;3.10;;;34.90;99.90;;;;;;5049620;28;20449;-84
2023/06/17 12:47:42;;;;;;;5.10;3.30;;;35.10;99.90;;;;;;5039521;28;20480;-83
2023/06/17 12:50:11;;;;;;;4.20;3.70;;;35.20;99.90;;;;;;5040472;28;20493;-81
2023/06/17 12:52:42;;;;;;;4.77;3.60;;;35.30;99.90;;;;;;5040709;28;20463;-83